Time;durP1;ratioP1;P1;durP2;ratioP2;P2;SDS_P1;SDS_P2;PMS_P1;PMS_P2;Temp;Humidity;BMP_temperature;BMP_pressure;BME280_temperature;BME280_humidity;BME280_pressure;Samples;Min_cycle;Max_cycle;Signal;HPM_P1;HPM_P2
2023/06/20 06:35:21;;;;;;;26.38;24.67;;;33.00;81.70;;;;;;6024611;23;21112;31
2023/06/20 06:37:52;;;;;;;26.02;24.33;;;33.40;82.30;;;;;;5956862;23;20071;-94
2023/06/20 06:40:29;;;;;;;26.13;24.33;;;33.50;83.20;;;;;;5979517;24;20083;-94
2023/06/20 06:42:58;;;;;;;25.35;23.85;;;33.20;82.40;;;;;;5955934;23;20020;-94
2023/06/20 06:45:28;;;;;;;26.05;24.35;;;33.20;83.70;;;;;;5993145;23;20006;-93
2023/06/20 06:47:55;;;;;;;25.42;23.90;;;32.80;82.30;;;;;;6101775;23;20439;-93
2023/06/20 06:50:21;;;;;;;25.60;24.00;;;32.30;83.60;;;;;;6102120;23;20013;-93
2023/06/20 06:53:21;;;;;;;25.65;24.05;;;32.30;83.10;;;;;;6078487;23;20016;-95
2023/06/20 06:56:06;;;;;;;25.58;23.92;;;32.60;86.00;;;;;;6106646;23;20025;-93
2023/06/20 06:58:34;;;;;;;26.05;24.45;;;32.70;86.00;;;;;;6102261;23;20017;-94
2023/06/20 07:01:01;;;;;;;25.17;23.50;;;33.00;85.70;;;;;;6096456;23;20038;-93
2023/06/20 07:03:28;;;;;;;25.75;24.05;;;33.20;86.80;;;;;;6098317;23;20006;-93
2023/06/20 07:05:55;;;;;;;24.65;23.05;;;33.30;87.70;;;;;;6097344;23;20183;-95
2023/06/20 07:08:21;;;;;;;24.83;23.33;;;33.40;89.50;;;;;;6097605;23;20010;-93
2023/06/20 07:10:50;;;;;;;25.20;23.70;;;33.20;90.30;;;;;;6098172;23;20010;-95
2023/06/20 07:32:59;;;;;;;25.58;23.98;;;32.80;92.50;;;;;;6216753;22;20028;-92
2023/06/20 07:35:26;;;;;;;25.90;24.38;;;32.80;92.10;;;;;;6168455;23;20012;-93
2023/06/20 09:08:36;;;;;;;26.42;24.90;;;33.10;91.50;;;;;;6027916;23;20963;31
2023/06/20 09:11:13;;;;;;;26.50;24.80;;;33.00;91.10;;;;;;6134548;23;20023;-94
2023/06/20 09:13:42;;;;;;;27.38;25.40;;;32.80;91.40;;;;;;6083999;23;20382;-95
2023/06/20 09:16:17;;;;;;;26.10;24.50;;;33.10;91.40;;;;;;6086231;23;20016;-94
2023/06/20 09:18:50;;;;;;;27.25;25.55;;;32.80;90.90;;;;;;6104606;23;20040;-95
2023/06/20 09:21:18;;;;;;;27.05;25.10;;;32.20;91.30;;;;;;6131572;23;20065;-94
2023/06/20 09:23:48;;;;;;;26.83;25.13;;;32.20;91.30;;;;;;6131254;23;20336;-95
2023/06/20 09:26:17;;;;;;;25.63;24.13;;;32.30;91.40;;;;;;6131645;23;20032;-94
2023/06/20 09:28:44;;;;;;;27.08;25.13;;;32.20;91.10;;;;;;6131273;23;20040;-94
2023/06/20 09:31:13;;;;;;;26.10;24.50;;;32.30;91.70;;;;;;6132082;23;20015;-94
2023/06/20 09:33:44;;;;;;;26.67;25.08;;;32.20;92.10;;;;;;6132684;23;20462;-94
2023/06/20 09:36:22;;;;;;;25.65;24.02;;;32.00;92.30;;;;;;6132017;23;20017;-95
2023/06/20 09:39:07;;;;;;;26.15;24.55;;;32.50;92.00;;;;;;6134572;23;20010;-95
2023/06/20 09:41:50;;;;;;;26.02;24.52;;;32.70;91.50;;;;;;6159149;23;20042;-95
2023/06/20 09:44:28;;;;;;;26.50;24.90;;;32.50;90.80;;;;;;6141261;23;20040;-95
2023/06/20 09:46:58;;;;;;;25.73;24.23;;;31.60;91.20;;;;;;6132745;23;20085;-95
2023/06/20 09:49:33;;;;;;;26.40;24.58;;;31.70;91.70;;;;;;6131800;23;20054;-94
2023/06/20 09:52:05;;;;;;;26.17;24.67;;;31.50;91.30;;;;;;6131524;23;20400;-96
2023/06/20 09:54:48;;;;;;;27.10;25.33;;;31.40;91.40;;;;;;6131747;23;20028;-94
2023/06/20 09:57:28;;;;;;;25.17;23.67;;;31.90;91.50;;;;;;6131797;23;20347;-95
2023/06/20 10:00:14;;;;;;;25.75;24.15;;;31.90;90.80;;;;;;6131383;23;20332;-94
2023/06/20 10:02:50;;;;;;;26.27;24.67;;;32.00;91.30;;;;;;6131507;23;20068;-95
2023/06/20 10:05:21;;;;;;;26.23;24.58;;;31.70;91.10;;;;;;6131984;23;20017;-94
2023/06/20 10:07:49;;;;;;;25.23;23.67;;;31.90;91.00;;;;;;6131871;23;20005;-95
2023/06/20 10:10:19;;;;;;;26.98;25.20;;;31.90;91.60;;;;;;6125340;23;20065;-95
2023/06/20 10:12:47;;;;;;;26.65;25.05;;;31.70;91.50;;;;;;6127202;23;20137;-94
2023/06/20 10:15:25;;;;;;;26.48;24.77;;;31.80;91.80;;;;;;6125383;23;20405;-95
2023/06/20 10:17:54;;;;;;;27.33;25.30;;;31.50;92.20;;;;;;6125937;23;20094;-95
2023/06/20 10:20:37;;;;;;;26.25;24.65;;;31.40;92.00;;;;;;6126556;23;20088;-94
2023/06/20 10:23:13;;;;;;;26.25;24.48;;;31.60;92.00;;;;;;6124581;23;20025;-94
2023/06/20 10:25:53;;;;;;;25.63;24.10;;;31.40;91.70;;;;;;6126377;23;20092;-94
2023/06/20 10:28:21;;;;;;;26.00;24.45;;;31.40;91.70;;;;;;6125885;23;20014;-93
2023/06/20 10:30:53;;;;;;;25.65;23.95;;;31.40;91.10;;;;;;6126997;23;20006;-93
2023/06/20 10:33:29;;;;;;;25.60;23.90;;;31.40;91.80;;;;;;6125953;23;20041;-95
2023/06/20 10:35:57;;;;;;;25.48;23.98;;;31.50;91.30;;;;;;6125947;23;20056;-94
2023/06/20 10:38:34;;;;;;;26.30;24.50;;;31.50;91.20;;;;;;6128242;23;20006;-94
2023/06/20 10:41:11;;;;;;;25.83;24.23;;;31.60;90.60;;;;;;6128089;23;20416;-94
2023/06/20 10:43:54;;;;;;;25.33;23.83;;;31.90;90.20;;;;;;6128071;23;20042;-94
2023/06/20 10:46:46;;;;;;;26.60;24.90;;;31.80;90.30;;;;;;6128415;23;20036;-94
2023/06/20 10:49:13;;;;;;;25.67;24.00;;;31.40;91.40;;;;;;6127631;23;20010;-94
2023/06/20 10:51:47;;;;;;;25.67;23.95;;;31.60;91.10;;;;;;6127636;23;20010;-92
2023/06/20 10:54:16;;;;;;;26.23;24.63;;;31.60;90.80;;;;;;6127828;23;20059;-93
2023/06/20 10:56:49;;;;;;;25.52;23.92;;;31.70;90.80;;;;;;6128058;23;20013;-93
2023/06/20 10:59:19;;;;;;;25.92;24.08;;;31.40;91.50;;;;;;6103591;23;20014;-93
2023/06/20 11:01:46;;;;;;;25.95;24.35;;;31.20;91.50;;;;;;6127557;23;20033;-92
2023/06/20 11:04:17;;;;;;;25.23;23.48;;;31.40;92.40;;;;;;6127840;23;20061;-92
2023/06/20 11:06:43;;;;;;;25.77;24.27;;;31.30;92.30;;;;;;6127445;23;20006;-94
2023/06/20 11:09:38;;;;;;;25.83;24.23;;;31.50;91.60;;;;;;6127891;23;20017;-94
2023/06/20 11:12:08;;;;;;;26.27;24.42;;;31.40;91.50;;;;;;6107947;23;20041;-93
2023/06/20 11:14:34;;;;;;;25.85;24.10;;;31.60;91.50;;;;;;6079242;23;20121;-94
2023/06/20 11:17:02;;;;;;;25.52;23.92;;;31.70;91.40;;;;;;6127866;23;20018;-93
2023/06/20 11:19:29;;;;;;;25.50;23.52;;;31.70;90.30;;;;;;6127318;23;20483;-94
2023/06/20 11:21:59;;;;;;;25.55;23.95;;;31.70;90.40;;;;;;6127899;23;20045;-93
2023/06/20 11:24:26;;;;;;;25.33;23.73;;;31.80;88.40;;;;;;6079389;23;20447;-93
2023/06/20 11:26:52;;;;;;;26.92;25.02;;;32.00;88.60;;;;;;6152314;23;20014;-92
2023/06/20 11:29:23;;;;;;;26.30;24.67;;;32.10;87.70;;;;;;6152995;23;20013;-95
2023/06/20 11:32:09;;;;;;;25.45;23.85;;;32.00;88.10;;;;;;6128562;23;20014;-93
2023/06/20 11:34:53;;;;;;;25.80;24.02;;;31.80;89.30;;;;;;6129460;23;20475;-92
2023/06/20 11:37:23;;;;;;;25.88;24.27;;;31.60;89.40;;;;;;6152190;23;20017;-92
2023/06/20 11:39:50;;;;;;;25.65;24.10;;;31.50;88.70;;;;;;6138766;23;20100;-93
2023/06/20 11:42:18;;;;;;;25.70;24.10;;;31.40;87.30;;;;;;6128172;23;20010;-95
2023/06/20 11:48:09;;;;;;;26.35;24.65;;;31.90;86.90;;;;;;6154966;23;20025;-92
2023/06/20 11:50:41;;;;;;;;;;;31.80;85.10;;;;;;6132976;23;20064;-94
2023/06/20 11:53:21;;;;;;;25.25;23.70;;;31.70;86.40;;;;;;6109350;23;19904;-94
2023/06/20 11:55:56;;;;;;;25.00;23.48;;;31.70;86.40;;;;;;6108364;23;20064;-94
2023/06/20 11:58:26;;;;;;;26.05;24.05;;;31.80;86.50;;;;;;6108803;23;20016;-93
2023/06/20 12:21:13;;;;;;;26.15;24.48;;;32.60;83.40;;;;;;6040526;23;20065;-93
2023/06/20 12:23:43;;;;;;;26.13;24.42;;;32.60;81.70;;;;;;6162458;23;20013;-93
2023/06/20 14:40:08;;;;;;;25.95;24.35;;;31.90;85.80;;;;;;6148001;23;20032;-92
2023/06/20 14:42:34;;;;;;;25.38;23.88;;;31.90;87.10;;;;;;6106145;23;20010;-93
2023/06/20 14:45:01;;;;;;;24.98;23.58;;;31.80;87.80;;;;;;6104087;23;20491;-91
2023/06/20 14:47:27;;;;;;;25.27;23.40;;;31.80;86.30;;;;;;6079276;23;20037;-92
2023/06/20 16:42:44;;;;;;;25.20;23.70;;;29.30;93.70;;;;;;6145634;23;20024;-95
2023/06/20 17:29:03;;;;;;;24.52;23.02;;;28.30;96.10;;;;;;6135118;23;20043;-94
2023/06/20 17:32:20;;;;;;;26.23;24.40;;;28.20;96.30;;;;;;6217896;23;20064;-94
2023/06/20 18:51:21;;;;;;;24.70;23.02;;;26.20;99.20;;;;;;6129472;22;20049;-94
2023/06/20 18:57:29;;;;;;;23.73;22.15;;;26.10;99.80;;;;;;6126660;23;20045;31
2023/06/20 19:29:44;;;;;;;23.63;22.05;;;25.30;99.90;;;;;;6213294;23;20036;-93
2023/06/20 20:15:44;;;;;;;21.70;19.80;;;24.50;99.90;;;;;;6119936;23;20060;-92
